sensor_id;sensor_type;location;lat;lon;timestamp;pressure;altitude;pressure_sealevel;temperature;humidity
80911;BME280;70359;51.420;7.032;2023-10-13T00:02:10;998.2261;;;19.19;67.42285
80911;BME280;70359;51.420;7.032;2023-10-13T00:04:35;998.2681;;;19.21;67.31152
80911;BME280;70359;51.420;7.032;2023-10-13T00:07:00;998.2935;;;19.16;67.61426
80911;BME280;70359;51.420;7.032;2023-10-13T00:09:26;998.2762;;;19.23;67.41797
80911;BME280;70359;51.420;7.032;2023-10-13T00:11:50;998.2445;;;19.19;67.52637
80911;BME280;70359;51.420;7.032;2023-10-13T00:14:15;998.1901;;;19.19;67.37695
80911;BME280;70359;51.420;7.032;2023-10-13T00:16:40;998.1378;;;19.18;67.44531
80911;BME280;70359;51.420;7.032;2023-10-13T00:19:05;998.1245;;;19.24;67.29297
80911;BME280;70359;51.420;7.032;2023-10-13T00:21:30;998.0332;;;19.18;67.56055
80911;BME280;70359;51.420;7.032;2023-10-13T00:23:55;997.9727;;;19.23;67.32617
80911;BME280;70359;51.420;7.032;2023-10-13T00:26:21;997.9588;;;19.22;67.24414
80911;BME280;70359;51.420;7.032;2023-10-13T00:28:45;997.9291;;;19.23;67.31445
80911;BME280;70359;51.420;7.032;2023-10-13T00:31:10;997.9017;;;19.16;67.37305
80911;BME280;70359;51.420;7.032;2023-10-13T00:33:35;997.932;;;19.22;67.32422
80911;BME280;70359;51.420;7.032;2023-10-13T00:36:00;997.8619;;;19.21;67.35645
80911;BME280;70359;51.420;7.032;2023-10-13T00:38:25;997.7999;;;19.21;67.54102
80911;BME280;70359;51.420;7.032;2023-10-13T00:40:50;997.8162;;;19.22;67.41699
80911;BME280;70359;51.420;7.032;2023-10-13T00:43:15;997.8262;;;19.24;67.47656
80911;BME280;70359;51.420;7.032;2023-10-13T00:45:42;997.7899;;;19.23;67.34863
80911;BME280;70359;51.420;7.032;2023-10-13T00:48:06;997.7683;;;19.23;67.44141
80911;BME280;70359;51.420;7.032;2023-10-13T00:50:30;997.7048;;;19.25;67.19043
80911;BME280;70359;51.420;7.032;2023-10-13T00:52:55;997.6856;;;19.26;67.33008
80911;BME280;70359;51.420;7.032;2023-10-13T00:55:21;997.6627;;;19.26;67.27344
80911;BME280;70359;51.420;7.032;2023-10-13T00:57:45;997.6238;;;19.25;67.37305
80911;BME280;70359;51.420;7.032;2023-10-13T01:00:11;997.6334;;;19.27;67.29688
80911;BME280;70359;51.420;7.032;2023-10-13T01:02:35;997.6156;;;19.3;67.33496
80911;BME280;70359;51.420;7.032;2023-10-13T01:05:00;997.5222;;;19.29;67.18555
80911;BME280;70359;51.420;7.032;2023-10-13T01:07:25;997.5005;;;19.29;67.13965
80911;BME280;70359;51.420;7.032;2023-10-13T01:09:50;997.4716;;;19.32;66.9707
80911;BME280;70359;51.420;7.032;2023-10-13T01:12:15;997.5185;;;19.26;67.20508
80911;BME280;70359;51.420;7.032;2023-10-13T01:14:40;997.4319;;;19.32;66.93652
80911;BME280;70359;51.420;7.032;2023-10-13T01:17:05;997.5053;;;19.28;67.25391
80911;BME280;70359;51.420;7.032;2023-10-13T01:19:35;997.4542;;;19.36;66.9873
80911;BME280;70359;51.420;7.032;2023-10-13T01:21:55;997.4328;;;19.3;67.30078
80911;BME280;70359;51.420;7.032;2023-10-13T01:24:20;997.4434;;;19.37;67.00195
80911;BME280;70359;51.420;7.032;2023-10-13T01:26:45;997.396;;;19.33;67.20215
80911;BME280;70359;51.420;7.032;2023-10-13T01:29:10;997.3785;;;19.37;66.9082
80911;BME280;70359;51.420;7.032;2023-10-13T01:31:36;997.3508;;;19.33;67.09863
80911;BME280;70359;51.420;7.032;2023-10-13T01:34:01;997.3192;;;19.41;66.70801
80911;BME280;70359;51.420;7.032;2023-10-13T01:36:26;997.2949;;;19.36;66.83789
80911;BME280;70359;51.420;7.032;2023-10-13T01:38:51;997.2567;;;19.41;66.68359
80911;BME280;70359;51.420;7.032;2023-10-13T01:41:16;997.2629;;;19.39;66.61328
80911;BME280;70359;51.420;7.032;2023-10-13T01:43:41;997.1844;;;19.38;66.85352
80911;BME280;70359;51.420;7.032;2023-10-13T01:46:06;997.2115;;;19.36;66.80371
80911;BME280;70359;51.420;7.032;2023-10-13T01:48:31;997.1676;;;19.35;67.03223
80911;BME280;70359;51.420;7.032;2023-10-13T01:50:56;997.1415;;;19.34;66.87012
80911;BME280;70359;51.420;7.032;2023-10-13T01:53:21;997.1042;;;19.33;67.05273
80911;BME280;70359;51.420;7.032;2023-10-13T01:55:46;997.0441;;;19.35;67.03125
80911;BME280;70359;51.420;7.032;2023-10-13T01:58:11;997.0184;;;19.3;67.41699
80911;BME280;70359;51.420;7.032;2023-10-13T02:00:36;996.9311;;;19.35;67.10156
80911;BME280;70359;51.420;7.032;2023-10-13T02:03:01;996.9405;;;19.33;67.39844
80911;BME280;70359;51.420;7.032;2023-10-13T02:05:26;996.9106;;;19.34;67.19238
80911;BME280;70359;51.420;7.032;2023-10-13T02:07:51;996.8954;;;19.34;67.5498
80911;BME280;70359;51.420;7.032;2023-10-13T02:10:16;996.8802;;;19.35;67.48145
80911;BME280;70359;51.420;7.032;2023-10-13T02:12:41;996.8244;;;19.32;67.61621
80911;BME280;70359;51.420;7.032;2023-10-13T02:15:06;996.8111;;;19.37;67.43945
80911;BME280;70359;51.420;7.032;2023-10-13T02:17:31;996.7349;;;19.35;67.50488
80911;BME280;70359;51.420;7.032;2023-10-13T02:19:56;996.731;;;19.35;67.40137
80911;BME280;70359;51.420;7.032;2023-10-13T02:22:21;996.6961;;;19.3;67.76172
80911;BME280;70359;51.420;7.032;2023-10-13T02:24:46;996.6861;;;19.36;67.50586
80911;BME280;70359;51.420;7.032;2023-10-13T02:27:11;996.6285;;;19.33;67.61719
80911;BME280;70359;51.420;7.032;2023-10-13T02:29:36;996.5908;;;19.38;67.22266
80911;BME280;70359;51.420;7.032;2023-10-13T02:32:01;996.5989;;;19.36;67.36816
80911;BME280;70359;51.420;7.032;2023-10-13T02:34:26;996.5112;;;19.4;67.09668
80911;BME280;70359;51.420;7.032;2023-10-13T02:36:51;996.4885;;;19.28;67.25391
80911;BME280;70359;51.420;7.032;2023-10-13T02:39:16;996.4672;;;19.32;67.23535
80911;BME280;70359;51.420;7.032;2023-10-13T02:41:41;996.4263;;;19.28;67.59863
80911;BME280;70359;51.420;7.032;2023-10-13T02:44:06;996.45;;;19.3;67.54395
80911;BME280;70359;51.420;7.032;2023-10-13T02:46:31;996.3492;;;19.28;67.75977
80911;BME280;70359;51.420;7.032;2023-10-13T02:48:56;996.3326;;;19.3;67.61328
80911;BME280;70359;51.420;7.032;2023-10-13T02:51:21;996.2659;;;19.32;67.4082
80911;BME280;70359;51.420;7.032;2023-10-13T02:53:46;996.2704;;;19.29;67.61133
80911;BME280;70359;51.420;7.032;2023-10-13T02:56:11;996.2826;;;19.33;67.57129
80911;BME280;70359;51.420;7.032;2023-10-13T02:58:36;996.2371;;;19.31;67.5918
80911;BME280;70359;51.420;7.032;2023-10-13T03:01:01;996.2339;;;19.33;67.375
80911;BME280;70359;51.420;7.032;2023-10-13T03:03:26;996.199;;;19.37;67.32422
80911;BME280;70359;51.420;7.032;2023-10-13T03:05:51;996.1672;;;19.4;66.94824
80911;BME280;70359;51.420;7.032;2023-10-13T03:08:19;996.1262;;;19.28;67.55273
80911;BME280;70359;51.420;7.032;2023-10-13T03:10:41;996.0463;;;19.32;67.56934
80911;BME280;70359;51.420;7.032;2023-10-13T03:13:06;996.043;;;19.25;67.75488
80911;BME280;70359;51.420;7.032;2023-10-13T03:15:32;995.976;;;19.29;67.80566
80911;BME280;70359;51.420;7.032;2023-10-13T03:17:56;996.0314;;;19.31;67.84473
80911;BME280;70359;51.420;7.032;2023-10-13T03:20:21;995.9626;;;19.27;67.77051
80911;BME280;70359;51.420;7.032;2023-10-13T03:22:46;995.8502;;;19.19;68.28809
80911;BME280;70359;51.420;7.032;2023-10-13T03:25:11;995.8513;;;19.26;68.13574
80911;BME280;70359;51.420;7.032;2023-10-13T03:27:36;995.8515;;;19.25;68.24805
80911;BME280;70359;51.420;7.032;2023-10-13T03:30:01;995.8483;;;19.27;68.10254
80911;BME280;70359;51.420;7.032;2023-10-13T03:32:26;995.7834;;;19.27;68.08008
80911;BME280;70359;51.420;7.032;2023-10-13T03:34:51;995.6887;;;19.28;68.03516
80911;BME280;70359;51.420;7.032;2023-10-13T03:37:16;995.5659;;;19.24;68.29492
80911;BME280;70359;51.420;7.032;2023-10-13T03:39:41;995.598;;;19.27;68.11426
80911;BME280;70359;51.420;7.032;2023-10-13T03:42:06;995.6613;;;19.22;68.38379
80911;BME280;70359;51.420;7.032;2023-10-13T03:44:31;995.5681;;;19.28;68.31152
80911;BME280;70359;51.420;7.032;2023-10-13T03:46:56;995.5753;;;19.23;68.5459
80911;BME280;70359;51.420;7.032;2023-10-13T03:49:21;995.5016;;;19.28;68.34766
80911;BME280;70359;51.420;7.032;2023-10-13T03:51:46;995.4398;;;19.21;68.64746
80911;BME280;70359;51.420;7.032;2023-10-13T03:54:11;995.3845;;;19.26;68.51563
80911;BME280;70359;51.420;7.032;2023-10-13T03:56:36;995.3166;;;19.2;68.67871
80911;BME280;70359;51.420;7.032;2023-10-13T03:59:01;995.2684;;;19.26;68.48242
80911;BME280;70359;51.420;7.032;2023-10-13T04:01:26;995.236;;;19.22;68.44141
80911;BME280;70359;51.420;7.032;2023-10-13T04:03:51;995.2483;;;19.26;68.41406
80911;BME280;70359;51.420;7.032;2023-10-13T04:06:16;995.2243;;;19.31;68.27051
80911;BME280;70359;51.420;7.032;2023-10-13T04:08:41;995.1275;;;19.25;68.47949
80911;BME280;70359;51.420;7.032;2023-10-13T04:11:06;995.1119;;;19.26;68.42383
80911;BME280;70359;51.420;7.032;2023-10-13T04:13:31;995.019;;;19.26;68.48145
80911;BME280;70359;51.420;7.032;2023-10-13T04:15:56;994.9313;;;19.21;68.62305
80911;BME280;70359;51.420;7.032;2023-10-13T04:18:21;994.9512;;;19.19;68.74707
80911;BME280;70359;51.420;7.032;2023-10-13T04:20:52;994.9327;;;19.28;68.44922
80911;BME280;70359;51.420;7.032;2023-10-13T04:23:11;994.8772;;;19.26;68.52734
80911;BME280;70359;51.420;7.032;2023-10-13T04:25:36;994.8486;;;19.29;68.4873
80911;BME280;70359;51.420;7.032;2023-10-13T04:28:01;994.7495;;;19.27;68.5752
80911;BME280;70359;51.420;7.032;2023-10-13T04:30:26;994.6882;;;19.34;68.30957
80911;BME280;70359;51.420;7.032;2023-10-13T04:32:51;994.6772;;;19.28;68.55371
80911;BME280;70359;51.420;7.032;2023-10-13T04:35:16;994.6887;;;19.29;68.55566
80911;BME280;70359;51.420;7.032;2023-10-13T04:37:41;994.6326;;;19.25;68.66309
80911;BME280;70359;51.420;7.032;2023-10-13T04:40:07;994.5977;;;19.31;68.59375
80911;BME280;70359;51.420;7.032;2023-10-13T04:42:31;994.5638;;;19.25;68.7207
80911;BME280;70359;51.420;7.032;2023-10-13T04:44:56;994.5563;;;19.34;68.50488
80911;BME280;70359;51.420;7.032;2023-10-13T04:47:21;994.5358;;;19.28;68.77344
80911;BME280;70359;51.420;7.032;2023-10-13T04:49:46;994.3812;;;19.32;68.70996
80911;BME280;70359;51.420;7.032;2023-10-13T04:52:11;994.452;;;19.25;69.04395
80911;BME280;70359;51.420;7.032;2023-10-13T04:54:36;994.4367;;;19.34;68.74707
80911;BME280;70359;51.420;7.032;2023-10-13T04:57:01;994.4877;;;19.28;69.10547
80911;BME280;70359;51.420;7.032;2023-10-13T04:59:26;994.3691;;;19.3;69.00684
80911;BME280;70359;51.420;7.032;2023-10-13T05:01:51;994.3787;;;19.18;69.49316
80911;BME280;70359;51.420;7.032;2023-10-13T05:04:16;994.368;;;19.31;69.15723
80911;BME280;70359;51.420;7.032;2023-10-13T05:06:41;994.2967;;;19.25;69.58496
80911;BME280;70359;51.420;7.032;2023-10-13T05:09:06;994.2708;;;19.31;69.36426
80911;BME280;70359;51.420;7.032;2023-10-13T05:11:31;994.2789;;;19.27;69.65723
80911;BME280;70359;51.420;7.032;2023-10-13T05:13:56;994.2537;;;19.3;69.55762
80911;BME280;70359;51.420;7.032;2023-10-13T05:16:21;994.256;;;19.32;69.52734
80911;BME280;70359;51.420;7.032;2023-10-13T05:18:46;994.0793;;;19.3;69.62695
80911;BME280;70359;51.420;7.032;2023-10-13T05:21:11;994.0639;;;19.36;69.50977
80911;BME280;70359;51.420;7.032;2023-10-13T05:23:36;994.1317;;;19.33;69.63184
80911;BME280;70359;51.420;7.032;2023-10-13T05:26:03;994.0796;;;19.36;69.53418
80911;BME280;70359;51.420;7.032;2023-10-13T05:28:26;994.0151;;;19.37;69.5459
80911;BME280;70359;51.420;7.032;2023-10-13T05:30:51;993.9537;;;19.32;69.84961
80911;BME280;70359;51.420;7.032;2023-10-13T05:33:16;994.0069;;;19.24;70.20508
80911;BME280;70359;51.420;7.032;2023-10-13T05:35:41;994.0447;;;19.32;69.90723
80911;BME280;70359;51.420;7.032;2023-10-13T05:38:06;994.0662;;;19.27;70.24512
80911;BME280;70359;51.420;7.032;2023-10-13T05:40:31;994.0078;;;19.29;70.17871
80911;BME280;70359;51.420;7.032;2023-10-13T05:42:56;994.0433;;;19.26;70.3916
80911;BME280;70359;51.420;7.032;2023-10-13T05:45:21;994.0573;;;19.3;70.23828
80911;BME280;70359;51.420;7.032;2023-10-13T05:47:46;994.1136;;;19.29;70.29395
80911;BME280;70359;51.420;7.032;2023-10-13T05:50:11;994.1401;;;19.29;70.25977
80911;BME280;70359;51.420;7.032;2023-10-13T05:52:36;994.1594;;;19.29;70.4209
80911;BME280;70359;51.420;7.032;2023-10-13T05:55:01;994.1946;;;19.34;70.24316
80911;BME280;70359;51.420;7.032;2023-10-13T05:57:26;994.1763;;;19.29;70.4668
80911;BME280;70359;51.420;7.032;2023-10-13T05:59:51;994.1589;;;19.29;70.55859
80911;BME280;70359;51.420;7.032;2023-10-13T06:02:16;994.2133;;;19.08;71.6416
80911;BME280;70359;51.420;7.032;2023-10-13T06:04:41;994.3406;;;19.08;71.6875
80911;BME280;70359;51.420;7.032;2023-10-13T06:07:06;994.3614;;;19.05;71.95801
80911;BME280;70359;51.420;7.032;2023-10-13T06:09:31;994.3246;;;19.15;71.69727
80911;BME280;70359;51.420;7.032;2023-10-13T06:11:56;994.2722;;;19.04;72.17285
80911;BME280;70359;51.420;7.032;2023-10-13T06:14:21;994.2798;;;19;72.26074
80911;BME280;70359;51.420;7.032;2023-10-13T06:16:46;994.196;;;18.97;72.63379
80911;BME280;70359;51.420;7.032;2023-10-13T06:19:11;994.1429;;;18.97;72.68066
80911;BME280;70359;51.420;7.032;2023-10-13T06:21:36;994.0342;;;18.87;73.05469
80911;BME280;70359;51.420;7.032;2023-10-13T06:24:01;993.9506;;;18.89;72.93164
80911;BME280;70359;51.420;7.032;2023-10-13T06:26:26;993.8599;;;18.82;73.37988
80911;BME280;70359;51.420;7.032;2023-10-13T06:28:51;993.7808;;;18.84;73.30273
80911;BME280;70359;51.420;7.032;2023-10-13T06:31:16;993.7771;;;18.8;73.46777
80911;BME280;70359;51.420;7.032;2023-10-13T06:33:41;993.83;;;18.78;73.34961
80911;BME280;70359;51.420;7.032;2023-10-13T06:36:06;993.8494;;;18.79;73.39746
80911;BME280;70359;51.420;7.032;2023-10-13T06:38:31;993.7784;;;18.84;73.23242
80911;BME280;70359;51.420;7.032;2023-10-13T06:40:56;993.8228;;;18.86;73.06445
80911;BME280;70359;51.420;7.032;2023-10-13T06:43:21;993.781;;;18.72;73.50195
80911;BME280;70359;51.420;7.032;2023-10-13T06:45:46;993.6949;;;18.91;72.88965
80911;BME280;70359;51.420;7.032;2023-10-13T06:48:11;993.6699;;;18.8;73.28418
80911;BME280;70359;51.420;7.032;2023-10-13T06:50:36;993.6741;;;18.9;73.09375
80911;BME280;70359;51.420;7.032;2023-10-13T06:53:01;993.5308;;;18.83;73.48535
80911;BME280;70359;51.420;7.032;2023-10-13T06:55:26;993.5353;;;18.85;73.29297
80911;BME280;70359;51.420;7.032;2023-10-13T06:57:51;993.6379;;;18.86;73.22363
80911;BME280;70359;51.420;7.032;2023-10-13T07:00:18;993.62;;;18.94;73.10059
80911;BME280;70359;51.420;7.032;2023-10-13T07:02:41;993.6674;;;18.92;73.37402
80911;BME280;70359;51.420;7.032;2023-10-13T07:05:06;993.6786;;;19.03;73.06934
80911;BME280;70359;51.420;7.032;2023-10-13T07:07:31;993.6027;;;19;73.3291
80911;BME280;70359;51.420;7.032;2023-10-13T07:09:56;993.6;;;19.07;73.16699
80911;BME280;70359;51.420;7.032;2023-10-13T07:12:21;993.5807;;;19.06;73.38477
80911;BME280;70359;51.420;7.032;2023-10-13T07:14:50;993.645;;;19.18;72.89746
80911;BME280;70359;51.420;7.032;2023-10-13T07:17:11;993.6775;;;19.14;73.15625
80911;BME280;70359;51.420;7.032;2023-10-13T07:19:36;993.6508;;;19.27;72.75098
80911;BME280;70359;51.420;7.032;2023-10-13T07:22:01;993.6002;;;19.25;72.94336
80911;BME280;70359;51.420;7.032;2023-10-13T07:24:26;993.5726;;;19.36;72.63965
80911;BME280;70359;51.420;7.032;2023-10-13T07:26:51;993.5669;;;19.32;72.94434
80911;BME280;70359;51.420;7.032;2023-10-13T07:29:16;993.5419;;;19.38;72.57324
80911;BME280;70359;51.420;7.032;2023-10-13T07:31:41;993.5634;;;19.37;72.74414
80911;BME280;70359;51.420;7.032;2023-10-13T07:34:07;993.5515;;;19.46;72.45996
80911;BME280;70359;51.420;7.032;2023-10-13T07:36:31;993.4726;;;19.44;72.69824
80911;BME280;70359;51.420;7.032;2023-10-13T07:38:56;993.4514;;;19.51;72.30664
80911;BME280;70359;51.420;7.032;2023-10-13T07:41:21;993.3211;;;19.52;72.25195
80911;BME280;70359;51.420;7.032;2023-10-13T07:43:46;993.3645;;;19.56;72.24609
80911;BME280;70359;51.420;7.032;2023-10-13T07:46:11;993.3223;;;19.64;72.0166
80911;BME280;70359;51.420;7.032;2023-10-13T07:48:36;993.3251;;;19.66;72.11328
80911;BME280;70359;51.420;7.032;2023-10-13T07:51:02;993.2673;;;19.73;71.89453
80911;BME280;70359;51.420;7.032;2023-10-13T07:53:26;993.2767;;;19.77;72.12988
80911;BME280;70359;51.420;7.032;2023-10-13T07:55:51;993.2078;;;19.84;71.86621
80911;BME280;70359;51.420;7.032;2023-10-13T07:58:16;993.2495;;;19.85;71.80859
80911;BME280;70359;51.420;7.032;2023-10-13T08:00:41;993.1978;;;19.92;71.25586
80911;BME280;70359;51.420;7.032;2023-10-13T08:03:06;993.1122;;;19.87;71.44531
80911;BME280;70359;51.420;7.032;2023-10-13T08:05:31;993.1895;;;19.97;71.08008
80911;BME280;70359;51.420;7.032;2023-10-13T08:07:56;993.0963;;;19.93;71.29297
80911;BME280;70359;51.420;7.032;2023-10-13T08:10:22;993.074;;;20.02;70.9375
80911;BME280;70359;51.420;7.032;2023-10-13T08:12:46;993.0709;;;20.01;71.08691
80911;BME280;70359;51.420;7.032;2023-10-13T08:15:12;993.038;;;20.08;70.72852
80911;BME280;70359;51.420;7.032;2023-10-13T08:17:36;992.9252;;;20.09;70.33789
80911;BME280;70359;51.420;7.032;2023-10-13T08:20:01;992.9227;;;20.14;70.47266
80911;BME280;70359;51.420;7.032;2023-10-13T08:22:26;992.7906;;;20.1;70.60449
80911;BME280;70359;51.420;7.032;2023-10-13T08:24:52;992.8885;;;20.18;69.93848
80911;BME280;70359;51.420;7.032;2023-10-13T08:27:18;992.9067;;;20.13;69.96289
80911;BME280;70359;51.420;7.032;2023-10-13T08:29:42;992.8555;;;20.18;69.34863
80911;BME280;70359;51.420;7.032;2023-10-13T08:32:07;992.837;;;20.04;69.44141
80911;BME280;70359;51.420;7.032;2023-10-13T08:34:32;992.9626;;;20.17;69.24316
80911;BME280;70359;51.420;7.032;2023-10-13T08:36:56;992.8879;;;20.14;69.05469
80911;BME280;70359;51.420;7.032;2023-10-13T08:39:21;992.9039;;;20.23;68.82617
80911;BME280;70359;51.420;7.032;2023-10-13T08:41:46;992.905;;;20.25;68.99023
80911;BME280;70359;51.420;7.032;2023-10-13T08:44:12;992.8937;;;20.31;68.48242
80911;BME280;70359;51.420;7.032;2023-10-13T08:46:37;992.837;;;20.23;68.4209
80911;BME280;70359;51.420;7.032;2023-10-13T08:49:02;992.7966;;;20.37;67.83105
80911;BME280;70359;51.420;7.032;2023-10-13T08:51:27;992.7734;;;20.25;67.50293
80911;BME280;70359;51.420;7.032;2023-10-13T08:53:52;992.7849;;;20.35;67.06641
80911;BME280;70359;51.420;7.032;2023-10-13T08:56:17;992.7625;;;20.41;67.35352
80911;BME280;70359;51.420;7.032;2023-10-13T08:58:42;992.5237;;;20.38;66.36719
80911;BME280;70359;51.420;7.032;2023-10-13T09:01:07;992.6202;;;20.45;65.5332
80911;BME280;70359;51.420;7.032;2023-10-13T09:03:32;992.6047;;;20.42;65.89941
80911;BME280;70359;51.420;7.032;2023-10-13T09:05:57;992.4238;;;20.37;65.49902
80911;BME280;70359;51.420;7.032;2023-10-13T09:08:28;992.4387;;;20.41;66.14063
80911;BME280;70359;51.420;7.032;2023-10-13T09:10:47;992.4766;;;20.55;65.89551
80911;BME280;70359;51.420;7.032;2023-10-13T09:13:12;992.4561;;;20.47;65.73438
80911;BME280;70359;51.420;7.032;2023-10-13T09:15:37;992.4612;;;20.51;65.17188
80911;BME280;70359;51.420;7.032;2023-10-13T09:18:02;992.4955;;;20.57;66.77637
80911;BME280;70359;51.420;7.032;2023-10-13T09:20:33;992.4202;;;20.7;65.1543
80911;BME280;70359;51.420;7.032;2023-10-13T09:22:52;992.3173;;;20.74;65.29785
80911;BME280;70359;51.420;7.032;2023-10-13T09:25:17;992.3342;;;20.84;66.45801
80911;BME280;70359;51.420;7.032;2023-10-13T09:27:42;992.3175;;;20.82;64.59375
80911;BME280;70359;51.420;7.032;2023-10-13T09:30:10;992.3039;;;20.93;64.50586
80911;BME280;70359;51.420;7.032;2023-10-13T09:32:32;992.2687;;;20.92;64.53809
80911;BME280;70359;51.420;7.032;2023-10-13T09:34:57;992.1433;;;20.94;65.01563
80911;BME280;70359;51.420;7.032;2023-10-13T09:37:22;992.2236;;;20.91;64.29297
80911;BME280;70359;51.420;7.032;2023-10-13T09:39:47;992.0808;;;21.01;63.00098
80911;BME280;70359;51.420;7.032;2023-10-13T09:42:12;992.1255;;;20.99;63.20703
80911;BME280;70359;51.420;7.032;2023-10-13T09:44:37;992.0499;;;21.03;62.7832
80911;BME280;70359;51.420;7.032;2023-10-13T09:47:03;992.0705;;;21.05;62.77539
80911;BME280;70359;51.420;7.032;2023-10-13T09:49:27;992.077;;;21.14;63.74805
80911;BME280;70359;51.420;7.032;2023-10-13T09:51:52;991.9227;;;21.19;62.95703
80911;BME280;70359;51.420;7.032;2023-10-13T09:54:18;991.8767;;;21.24;62.39551
80911;BME280;70359;51.420;7.032;2023-10-13T09:56:43;991.9316;;;21.16;61.2832
80911;BME280;70359;51.420;7.032;2023-10-13T10:02:31;991.8228;;;21.28;61.37012
80911;BME280;70359;51.420;7.032;2023-10-13T10:04:57;991.8948;;;21.38;60.67676
80911;BME280;70359;51.420;7.032;2023-10-13T10:07:27;991.9447;;;21.38;61.2793
80911;BME280;70359;51.420;7.032;2023-10-13T10:09:55;991.9822;;;21.47;60.13184
80911;BME280;70359;51.420;7.032;2023-10-13T10:12:16;991.9938;;;21.49;60.68066
80911;BME280;70359;51.420;7.032;2023-10-13T10:14:41;991.9174;;;21.57;60.06445
80911;BME280;70359;51.420;7.032;2023-10-13T10:17:04;991.9031;;;21.62;60.60547
80911;BME280;70359;51.420;7.032;2023-10-13T10:19:26;991.8417;;;21.73;59.96875
80911;BME280;70359;51.420;7.032;2023-10-13T10:21:50;991.8697;;;21.7;59.43066
80911;BME280;70359;51.420;7.032;2023-10-13T10:24:20;991.8423;;;21.76;59.66992
80911;BME280;70359;51.420;7.032;2023-10-13T10:26:41;991.7798;;;21.78;59.11621
80911;BME280;70359;51.420;7.032;2023-10-13T10:29:14;991.7969;;;21.79;58.50195
80911;BME280;70359;51.420;7.032;2023-10-13T10:31:34;991.7431;;;21.64;58.71582
80911;BME280;70359;51.420;7.032;2023-10-13T10:33:56;991.7559;;;21.76;58.32324
80911;BME280;70359;51.420;7.032;2023-10-13T10:36:27;991.7847;;;21.77;58.4541
80911;BME280;70359;51.420;7.032;2023-10-13T10:38:56;991.6699;;;21.87;59.32617
80911;BME280;70359;51.420;7.032;2023-10-13T10:41:11;991.6262;;;21.9;58.46973
80911;BME280;70359;51.420;7.032;2023-10-13T10:43:39;991.7417;;;21.93;59.22949
80911;BME280;70359;51.420;7.032;2023-10-13T10:46:01;991.6945;;;22.03;59.09082
80911;BME280;70359;51.420;7.032;2023-10-13T10:48:26;991.5851;;;21.87;58.11914
80911;BME280;70359;51.420;7.032;2023-10-13T10:50:57;991.4914;;;21.96;57.66504
80911;BME280;70359;51.420;7.032;2023-10-13T10:53:16;991.5122;;;21.84;58.54395
80911;BME280;70359;51.420;7.032;2023-10-13T10:55:41;991.4874;;;21.95;58.51172
80911;BME280;70359;51.420;7.032;2023-10-13T10:58:06;991.4588;;;21.97;58.54883
80911;BME280;70359;51.420;7.032;2023-10-13T11:00:31;991.5347;;;22.13;58.06934
80911;BME280;70359;51.420;7.032;2023-10-13T11:02:58;991.5561;;;22.04;56.78027
80911;BME280;70359;51.420;7.032;2023-10-13T11:05:21;991.4592;;;22.12;57.87207
80911;BME280;70359;51.420;7.032;2023-10-13T11:07:48;991.4792;;;22.11;58.3584
80911;BME280;70359;51.420;7.032;2023-10-13T11:10:11;991.4346;;;22.2;57.67188
80911;BME280;70359;51.420;7.032;2023-10-13T11:12:36;991.3762;;;22.16;57.20313
80911;BME280;70359;51.420;7.032;2023-10-13T11:15:04;991.3376;;;22.24;57.07227
80911;BME280;70359;51.420;7.032;2023-10-13T11:17:26;991.2711;;;22.11;57.21973
80911;BME280;70359;51.420;7.032;2023-10-13T11:19:51;991.2836;;;22.19;56.8457
80911;BME280;70359;51.420;7.032;2023-10-13T11:22:16;991.1446;;;22.17;56.72656
80911;BME280;70359;51.420;7.032;2023-10-13T11:24:44;991.0449;;;22.28;56.92578
80911;BME280;70359;51.420;7.032;2023-10-13T11:27:06;990.9941;;;22.3;56.54492
80911;BME280;70359;51.420;7.032;2023-10-13T11:29:34;990.9725;;;22.27;56.38965
80911;BME280;70359;51.420;7.032;2023-10-13T11:31:56;990.9752;;;22.26;55.95898
80911;BME280;70359;51.420;7.032;2023-10-13T11:34:21;990.9235;;;22.29;56.82324
80911;BME280;70359;51.420;7.032;2023-10-13T11:36:57;990.8965;;;22.34;56.06152
80911;BME280;70359;51.420;7.032;2023-10-13T11:39:11;990.8433;;;22.37;55.6123
80911;BME280;70359;51.420;7.032;2023-10-13T11:41:36;990.7827;;;22.42;55.81543
80911;BME280;70359;51.420;7.032;2023-10-13T11:44:01;990.7326;;;22.47;56.06543
80911;BME280;70359;51.420;7.032;2023-10-13T11:46:27;990.7234;;;22.52;55.53711
80911;BME280;70359;51.420;7.032;2023-10-13T11:48:51;990.6447;;;22.49;56.1377
80911;BME280;70359;51.420;7.032;2023-10-13T11:51:16;990.634;;;22.51;54.88379
80911;BME280;70359;51.420;7.032;2023-10-13T11:53:41;990.4911;;;22.62;55.79492
80911;BME280;70359;51.420;7.032;2023-10-13T11:56:06;990.5087;;;22.63;54.18848
80911;BME280;70359;51.420;7.032;2023-10-13T11:58:31;990.4484;;;22.67;54.37891
80911;BME280;70359;51.420;7.032;2023-10-13T12:00:56;990.348;;;22.77;53.97168
80911;BME280;70359;51.420;7.032;2023-10-13T12:03:21;990.3733;;;22.73;53.97949
80911;BME280;70359;51.420;7.032;2023-10-13T12:05:46;990.3875;;;22.93;53.66504
80911;BME280;70359;51.420;7.032;2023-10-13T12:08:11;990.4683;;;22.91;54.13965
80911;BME280;70359;51.420;7.032;2023-10-13T12:10:36;990.4044;;;23.07;53.98438
80911;BME280;70359;51.420;7.032;2023-10-13T12:13:01;990.4235;;;23.04;53.09473
80911;BME280;70359;51.420;7.032;2023-10-13T12:15:26;990.4267;;;23.05;52.58203
80911;BME280;70359;51.420;7.032;2023-10-13T12:17:51;990.4274;;;23.09;52.24902
80911;BME280;70359;51.420;7.032;2023-10-13T12:20:16;990.3909;;;23.21;53.65137
80911;BME280;70359;51.420;7.032;2023-10-13T12:22:41;990.2883;;;23.13;51.9502
80911;BME280;70359;51.420;7.032;2023-10-13T12:25:06;990.3494;;;23.22;50.97949